createdAt,value
2022-11-14T00:01:12.608Z,11.43
2022-11-14T00:03:58.094Z,15.38
2022-11-14T00:06:43.457Z,13.88
2022-11-14T00:09:29.517Z,13.40
2022-11-14T00:12:14.562Z,11.65
2022-11-14T00:15:00.837Z,13.05
2022-11-14T00:17:46.194Z,12.00
2022-11-14T00:20:32.669Z,11.68
2022-11-14T00:23:18.993Z,13.27
2022-11-14T00:26:04.512Z,12.30
2022-11-14T00:28:49.956Z,14.00
2022-11-14T00:31:35.286Z,11.68
2022-11-14T00:34:20.705Z,10.68
2022-11-14T00:37:06.031Z,11.85
2022-11-14T00:39:51.609Z,10.00
2022-11-14T00:42:36.906Z,11.50
2022-11-14T00:45:22.211Z,11.32
2022-11-14T00:48:07.475Z,10.00
2022-11-14T00:50:52.907Z,10.55
2022-11-14T00:53:39.167Z,10.85
2022-11-14T00:56:24.569Z,9.80
2022-11-14T00:59:09.894Z,11.48
2022-11-14T01:01:57.920Z,10.98
2022-11-14T01:04:43.686Z,11.00
2022-11-14T01:07:29.188Z,9.50
2022-11-14T01:10:14.945Z,9.93
2022-11-14T01:13:00.302Z,10.73
2022-11-14T01:15:48.618Z,9.82
2022-11-14T01:18:33.888Z,10.43
2022-11-14T01:21:19.337Z,10.70
2022-11-14T01:24:05.111Z,11.23
2022-11-14T01:26:50.332Z,11.43
2022-11-14T01:29:35.798Z,11.82
2022-11-14T01:32:21.073Z,10.82
2022-11-14T01:35:06.687Z,12.23
2022-11-14T01:37:52.036Z,10.85
2022-11-14T01:40:42.878Z,10.60
2022-11-14T01:43:37.721Z,10.43
2022-11-14T01:46:30.388Z,10.35
2022-11-14T01:52:12.964Z,11.70
2022-11-14T01:55:00.794Z,12.50
2022-11-14T01:57:48.001Z,11.00
2022-11-14T02:00:33.473Z,12.55
2022-11-14T02:03:19.848Z,11.65
2022-11-14T02:06:07.847Z,11.35
2022-11-14T02:08:55.237Z,11.68
2022-11-14T02:11:43.533Z,11.00
2022-11-14T02:14:30.009Z,12.82
2022-11-14T02:17:32.182Z,12.20
2022-11-14T02:20:20.652Z,13.43
2022-11-14T02:23:05.913Z,12.10
2022-11-14T02:25:51.252Z,11.23
2022-11-14T02:28:36.912Z,12.60
2022-11-14T02:31:22.039Z,11.60
2022-11-14T02:34:07.440Z,11.80
2022-11-14T02:36:53.014Z,11.70
2022-11-14T02:39:38.934Z,9.85
2022-11-14T02:42:24.013Z,9.40
2022-11-14T02:45:10.871Z,9.57
2022-11-14T02:47:56.300Z,10.68
2022-11-14T02:50:41.556Z,9.02
2022-11-14T02:53:26.933Z,12.52
2022-11-14T02:56:12.284Z,11.50
2022-11-14T02:58:57.740Z,10.60
2022-11-14T03:01:43.085Z,11.15
2022-11-14T03:04:28.494Z,12.23
2022-11-14T03:07:14.147Z,11.02
2022-11-14T03:09:59.378Z,11.68
2022-11-14T03:12:44.889Z,11.70
2022-11-14T03:15:30.216Z,11.70
2022-11-14T03:18:15.709Z,11.18
2022-11-14T03:21:16.689Z,11.60
2022-11-14T03:24:01.906Z,13.00
2022-11-14T03:26:47.292Z,10.95
2022-11-14T03:29:32.438Z,10.30
2022-11-14T03:32:17.863Z,11.30
2022-11-14T03:35:03.314Z,12.38
2022-11-14T03:37:50.908Z,11.65
2022-11-14T03:40:40.813Z,10.75
2022-11-14T03:43:26.732Z,11.15
2022-11-14T03:46:11.708Z,11.38
2022-11-14T03:48:57.453Z,11.40
2022-11-14T03:51:42.778Z,11.52
2022-11-14T03:54:28.224Z,11.88
2022-11-14T03:57:13.658Z,11.63
2022-11-14T03:59:58.873Z,12.38
2022-11-14T04:02:44.280Z,10.90
2022-11-14T04:05:29.754Z,10.65
2022-11-14T04:08:15.380Z,10.65
2022-11-14T04:11:00.899Z,11.07
2022-11-14T04:13:46.336Z,10.63
2022-11-14T04:16:31.824Z,10.90
2022-11-14T04:19:17.113Z,10.27
2022-11-14T04:22:02.603Z,11.98
2022-11-14T04:24:48.042Z,10.18
2022-11-14T04:27:33.372Z,11.40
2022-11-14T04:30:18.936Z,9.82
2022-11-14T04:33:04.451Z,10.07
2022-11-14T04:35:49.680Z,11.38
2022-11-14T04:38:35.067Z,10.23
2022-11-14T04:41:20.363Z,10.75
2022-11-14T04:44:05.845Z,10.05
2022-11-14T04:46:51.081Z,10.48
2022-11-14T04:49:36.835Z,10.48
2022-11-14T04:52:22.138Z,10.48
2022-11-14T04:55:08.047Z,10.68
2022-11-14T04:57:57.654Z,11.05
2022-11-14T05:00:43.093Z,10.40
2022-11-14T05:03:29.256Z,10.60
2022-11-14T05:06:14.402Z,10.98
2022-11-14T05:08:59.782Z,10.30
2022-11-14T05:11:45.069Z,10.05
2022-11-14T05:14:31.676Z,9.73
2022-11-14T05:17:16.797Z,9.82
2022-11-14T05:20:02.437Z,9.70
2022-11-14T05:22:47.743Z,9.38
2022-11-14T05:25:33.101Z,9.88
2022-11-14T05:28:18.429Z,8.70
2022-11-14T05:31:05.782Z,9.63
2022-11-14T05:33:51.579Z,9.73
2022-11-14T05:36:36.709Z,10.10
2022-11-14T05:39:22.033Z,10.88
2022-11-14T05:42:07.293Z,11.02
2022-11-14T05:44:52.636Z,9.57
2022-11-14T05:47:38.065Z,9.98
2022-11-14T05:50:23.412Z,11.10
2022-11-14T05:53:08.793Z,10.77
2022-11-14T05:55:55.322Z,10.50
2022-11-14T05:58:40.921Z,10.50
2022-11-14T06:01:26.102Z,10.88
2022-11-14T06:04:13.453Z,10.35
2022-11-14T06:06:58.816Z,11.20
2022-11-14T06:09:44.073Z,10.07
2022-11-14T06:12:31.348Z,11.35
2022-11-14T06:15:17.471Z,11.32
2022-11-14T06:18:02.796Z,10.88
2022-11-14T06:20:48.229Z,11.68
2022-11-14T06:23:34.056Z,11.45
2022-11-14T06:26:22.504Z,12.10
2022-11-14T06:29:09.442Z,10.00
2022-11-14T06:31:54.906Z,11.40
2022-11-14T06:34:40.154Z,11.52
2022-11-14T06:37:26.353Z,10.50
2022-11-14T06:40:13.537Z,10.25
2022-11-14T06:42:58.822Z,11.73
2022-11-14T06:45:44.225Z,11.15
2022-11-14T06:48:30.116Z,11.48
2022-11-14T06:51:16.505Z,11.90
2022-11-14T06:54:01.843Z,12.48
2022-11-14T06:56:47.131Z,11.52
2022-11-14T06:59:32.579Z,11.82
2022-11-14T07:02:21.668Z,11.48
2022-11-14T07:05:07.428Z,11.93
2022-11-14T07:07:52.878Z,11.07
2022-11-14T07:10:39.095Z,12.05
2022-11-14T07:13:24.118Z,11.88
2022-11-14T07:16:09.420Z,12.50
2022-11-14T07:18:55.318Z,10.70
2022-11-14T07:21:40.782Z,10.65
2022-11-14T07:24:26.116Z,11.10
2022-11-14T07:27:11.680Z,11.25
2022-11-14T07:29:56.947Z,12.38
2022-11-14T07:32:42.197Z,11.32
2022-11-14T07:35:27.658Z,12.10
2022-11-14T07:38:12.859Z,11.32
2022-11-14T07:41:12.426Z,10.23
2022-11-14T07:43:57.812Z,10.38
2022-11-14T07:46:43.467Z,11.52
2022-11-14T07:49:28.753Z,10.30
2022-11-14T07:52:14.158Z,9.40
2022-11-14T07:54:59.429Z,9.23
2022-11-14T07:57:48.955Z,7.53
2022-11-14T08:00:34.704Z,7.10
2022-11-14T08:03:20.183Z,6.88
2022-11-14T08:06:07.027Z,6.72
2022-11-14T08:08:52.049Z,7.25
2022-11-14T08:11:49.406Z,7.00
2022-11-14T08:14:35.155Z,7.18
2022-11-14T08:17:21.510Z,6.82
2022-11-14T08:20:08.861Z,6.25
2022-11-14T08:22:54.951Z,7.00
2022-11-14T08:25:40.321Z,5.82
2022-11-14T08:28:25.613Z,6.70
2022-11-14T08:31:11.001Z,7.20
2022-11-14T08:33:56.278Z,7.15
2022-11-14T08:36:41.756Z,5.85
2022-11-14T08:39:27.205Z,6.13
2022-11-14T08:42:12.715Z,6.25
2022-11-14T08:44:58.247Z,6.93
2022-11-14T08:47:50.261Z,6.65
2022-11-14T08:50:35.599Z,6.63
2022-11-14T08:53:20.965Z,5.85
2022-11-14T08:56:06.686Z,6.03
2022-11-14T08:58:51.836Z,6.55
2022-11-14T09:01:37.260Z,5.43
2022-11-14T09:04:22.733Z,6.15
2022-11-14T09:07:08.210Z,6.45
2022-11-14T09:09:53.469Z,5.25
2022-11-14T09:12:39.034Z,6.28
2022-11-14T09:15:24.605Z,5.55
2022-11-14T09:18:11.539Z,6.20
2022-11-14T09:21:05.713Z,7.30
2022-11-14T09:23:51.283Z,5.60
2022-11-14T09:26:36.702Z,5.70
2022-11-14T09:29:22.152Z,5.30
2022-11-14T09:32:07.685Z,7.13
2022-11-14T09:34:53.059Z,5.78
2022-11-14T09:37:39.088Z,5.93
2022-11-14T09:40:24.271Z,6.35
2022-11-14T09:43:17.326Z,6.10
2022-11-14T09:46:03.478Z,5.55
2022-11-14T09:48:50.188Z,5.15
2022-11-14T09:51:42.922Z,5.72
2022-11-14T09:54:36.124Z,5.47
2022-11-14T09:57:21.573Z,4.90
2022-11-14T10:00:13.962Z,4.72
2022-11-14T10:03:04.544Z,5.53
2022-11-14T10:06:11.290Z,5.55
2022-11-14T10:09:18.104Z,4.85
2022-11-14T10:12:15.246Z,5.43
2022-11-14T10:15:19.777Z,5.38
2022-11-14T10:18:30.067Z,4.75
2022-11-14T10:21:35.706Z,5.65
2022-11-14T10:24:45.464Z,5.45
2022-11-14T10:27:38.315Z,5.88
2022-11-14T10:30:23.596Z,5.07
2022-11-14T10:33:25.974Z,5.95
2022-11-14T10:36:26.570Z,5.32
2022-11-14T10:39:21.136Z,5.22
2022-11-14T10:42:22.902Z,5.63
2022-11-14T10:45:41.354Z,5.00
2022-11-14T10:48:31.043Z,4.95
2022-11-14T10:51:34.430Z,6.13
2022-11-14T10:54:41.040Z,5.28
2022-11-14T10:57:28.166Z,5.38
2022-11-14T11:00:15.996Z,5.95
2022-11-14T11:03:01.408Z,6.10
2022-11-14T11:05:54.797Z,5.82
2022-11-14T11:09:02.102Z,5.28
2022-11-14T11:11:58.996Z,5.40
2022-11-14T11:14:45.672Z,4.80
2022-11-14T11:17:36.132Z,5.13
2022-11-14T11:20:42.097Z,4.65
2022-11-14T11:23:28.146Z,5.07
2022-11-14T11:26:22.350Z,5.07
2022-11-14T11:29:10.474Z,5.60
2022-11-14T11:31:59.754Z,4.85
2022-11-14T11:34:45.626Z,5.63
2022-11-14T11:37:33.962Z,5.35
2022-11-14T11:40:25.659Z,5.07
2022-11-14T11:43:38.797Z,5.00
2022-11-14T11:46:44.927Z,5.35
2022-11-14T11:49:30.274Z,5.60
2022-11-14T11:52:44.077Z,5.63
2022-11-14T11:55:36.216Z,4.90
2022-11-14T11:58:45.548Z,4.90
2022-11-14T12:01:30.805Z,4.90
2022-11-14T12:04:16.279Z,5.45
2022-11-14T12:07:32.578Z,5.65
2022-11-14T12:10:27.542Z,4.55
2022-11-14T12:13:43.656Z,5.03
2022-11-14T12:17:16.629Z,5.32
2022-11-14T12:20:37.280Z,5.40
2022-11-14T12:23:33.814Z,5.38
2022-11-14T12:26:58.517Z,4.78
2022-11-14T12:30:22.041Z,5.00
2022-11-14T12:33:12.146Z,4.82
2022-11-14T12:36:05.705Z,4.63
2022-11-14T12:38:53.719Z,4.88
2022-11-14T12:41:39.861Z,4.72
2022-11-14T12:44:28.195Z,4.70
2022-11-14T12:47:24.303Z,3.97
2022-11-14T12:50:35.138Z,4.30
2022-11-14T12:53:39.265Z,4.25
2022-11-14T12:56:30.585Z,3.75
2022-11-14T12:59:32.601Z,4.55
2022-11-14T13:02:44.025Z,5.18
2022-11-14T13:05:46.755Z,5.03
2022-11-14T13:08:54.718Z,15.68
2022-11-14T13:12:01.792Z,5.40
2022-11-14T13:15:11.398Z,5.28
2022-11-14T13:18:45.731Z,4.90
2022-11-14T13:21:46.454Z,3.97
2022-11-14T13:25:00.228Z,3.92
2022-11-14T13:28:06.499Z,4.40
2022-11-14T13:31:35.997Z,3.92
2022-11-14T13:34:41.948Z,3.63
2022-11-14T13:38:04.884Z,3.83
2022-11-14T13:40:55.893Z,4.30
2022-11-14T13:44:09.682Z,4.35
2022-11-14T13:47:28.087Z,4.05
2022-11-14T13:50:18.694Z,3.88
2022-11-14T13:53:14.687Z,3.92
2022-11-14T13:56:02.779Z,3.65
2022-11-14T13:59:17.633Z,4.50
2022-11-14T14:02:11.572Z,4.05
2022-11-14T14:05:23.090Z,5.18
2022-11-14T14:08:13.001Z,3.95
2022-11-14T14:11:38.873Z,3.78
2022-11-14T14:14:45.494Z,3.53
2022-11-14T14:17:46.870Z,3.30
2022-11-14T14:20:48.120Z,3.75
2022-11-14T14:23:55.186Z,4.85
2022-11-14T14:26:59.211Z,4.13
2022-11-14T14:29:59.742Z,3.88
2022-11-14T14:33:08.239Z,3.90
2022-11-14T14:35:53.972Z,4.38
2022-11-14T14:38:39.304Z,3.55
2022-11-14T14:41:25.989Z,4.05
2022-11-14T14:44:36.804Z,4.20
2022-11-14T14:47:41.025Z,4.20
2022-11-14T14:50:42.951Z,4.13
2022-11-14T14:53:30.264Z,4.37
2022-11-14T14:56:24.937Z,3.80
2022-11-14T14:59:18.496Z,4.50
2022-11-14T15:02:04.111Z,3.78
2022-11-14T15:04:49.585Z,3.80
2022-11-14T15:07:38.717Z,4.38
2022-11-14T15:10:32.300Z,4.28
2022-11-14T15:13:18.741Z,4.75
2022-11-14T15:16:06.566Z,4.18
2022-11-14T15:18:53.444Z,4.18
2022-11-14T15:21:38.737Z,4.45
2022-11-14T15:24:24.471Z,4.53
2022-11-14T15:27:18.282Z,4.85
2022-11-14T15:30:07.849Z,5.00
2022-11-14T15:32:58.561Z,4.75
2022-11-14T15:35:44.022Z,4.43
2022-11-14T15:38:54.268Z,3.90
2022-11-14T15:41:34.602Z,4.07
2022-11-14T15:44:34.117Z,4.85
2022-11-14T15:47:25.062Z,5.60
2022-11-14T15:50:13.445Z,5.30
2022-11-14T15:53:00.615Z,5.80
2022-11-14T15:55:45.777Z,6.10
2022-11-14T15:58:32.167Z,6.50
2022-11-14T16:01:24.045Z,6.88
2022-11-14T16:04:20.194Z,6.55
2022-11-14T16:07:06.101Z,7.00
2022-11-14T16:09:51.757Z,6.28
2022-11-14T16:12:37.185Z,6.22
2022-11-14T16:15:22.401Z,6.00
2022-11-14T16:18:07.971Z,6.55
2022-11-14T16:20:58.655Z,6.10
2022-11-14T16:23:43.635Z,6.07
2022-11-14T16:26:30.271Z,6.60
2022-11-14T16:29:15.984Z,5.95
2022-11-14T16:32:01.113Z,6.85
2022-11-14T16:34:46.681Z,7.28
2022-11-14T16:37:32.247Z,5.93
2022-11-14T16:40:23.184Z,6.78
2022-11-14T16:43:13.082Z,7.10
2022-11-14T16:45:58.270Z,6.28
2022-11-14T16:48:43.579Z,6.80
2022-11-14T16:54:34.294Z,6.68
2022-11-14T16:57:19.697Z,7.05
2022-11-14T17:00:07.533Z,7.15
2022-11-14T17:02:52.546Z,7.40
2022-11-14T17:05:45.844Z,7.40
2022-11-14T17:08:30.901Z,7.07
2022-11-14T17:11:16.206Z,9.55
2022-11-14T17:14:01.682Z,8.35
2022-11-14T17:16:47.245Z,8.70
2022-11-14T17:19:32.824Z,8.63
2022-11-14T17:22:18.557Z,8.30
2022-11-14T17:25:04.354Z,8.75
2022-11-14T17:27:50.284Z,7.93
2022-11-14T17:30:41.032Z,8.65
2022-11-14T17:33:26.717Z,8.98
2022-11-14T17:36:12.463Z,9.35
2022-11-14T17:38:58.757Z,9.10
2022-11-14T17:41:44.304Z,9.85
2022-11-14T17:44:29.656Z,9.10
2022-11-14T17:47:15.371Z,8.70
2022-11-14T17:50:00.644Z,9.45
2022-11-14T17:52:46.149Z,8.93
2022-11-14T17:55:31.808Z,8.73
2022-11-14T17:58:17.225Z,8.00
2022-11-14T18:01:08.140Z,10.30
2022-11-14T18:03:53.625Z,10.05
2022-11-14T18:06:39.218Z,9.95
2022-11-14T18:09:24.750Z,9.02
2022-11-14T18:12:10.147Z,9.75
2022-11-14T18:14:55.398Z,11.95
2022-11-14T18:17:41.451Z,10.40
2022-11-14T18:20:26.828Z,9.80
2022-11-14T18:23:12.218Z,10.55
2022-11-14T18:25:57.622Z,9.73
2022-11-14T18:28:43.610Z,8.98
2022-11-14T18:31:29.584Z,9.48
2022-11-14T18:34:15.015Z,8.05
2022-11-14T18:37:00.438Z,7.82
2022-11-14T18:39:46.094Z,6.65
2022-11-14T18:42:31.421Z,7.47
2022-11-14T18:45:16.928Z,6.88
2022-11-14T18:48:02.425Z,6.50
2022-11-14T18:50:48.233Z,6.90
2022-11-14T18:53:34.781Z,6.78
2022-11-14T18:56:21.485Z,7.32
2022-11-14T18:59:07.133Z,7.63
2022-11-14T19:01:52.562Z,7.82
2022-11-14T19:04:37.935Z,7.40
2022-11-14T19:07:24.683Z,8.43
2022-11-14T19:10:10.159Z,7.57
2022-11-14T19:12:55.437Z,7.05
2022-11-14T19:15:42.535Z,7.30
2022-11-14T19:18:27.778Z,8.75
2022-11-14T19:21:13.224Z,7.70
2022-11-14T19:24:01.570Z,7.55
2022-11-14T19:26:46.714Z,7.68
2022-11-14T19:29:32.146Z,7.68
2022-11-14T19:32:17.576Z,8.88
2022-11-14T19:35:03.112Z,9.27
2022-11-14T19:37:48.434Z,7.95
2022-11-14T19:40:33.776Z,7.07
2022-11-14T19:43:22.545Z,7.20
2022-11-14T19:46:07.802Z,8.57
2022-11-14T19:49:00.897Z,6.85
2022-11-14T19:51:46.361Z,7.00
2022-11-14T19:54:31.638Z,9.77
2022-11-14T19:57:17.190Z,9.55
2022-11-14T20:00:02.558Z,7.88
2022-11-14T20:02:48.079Z,10.13
2022-11-14T20:05:33.411Z,8.65
2022-11-14T20:08:18.960Z,7.72
2022-11-14T20:11:05.966Z,8.82
2022-11-14T20:13:51.345Z,10.88
2022-11-14T20:16:37.872Z,11.50
2022-11-14T20:19:23.153Z,11.52
2022-11-14T20:22:08.518Z,12.30
2022-11-14T20:24:53.952Z,11.95
2022-11-14T20:27:39.450Z,11.75
2022-11-14T20:30:25.062Z,11.98
2022-11-14T20:33:11.006Z,10.88
2022-11-14T20:36:05.277Z,10.45
2022-11-14T20:38:51.958Z,12.13
2022-11-14T20:41:37.150Z,12.45
2022-11-14T20:44:22.559Z,11.68
2022-11-14T20:47:10.966Z,12.38
2022-11-14T20:49:56.962Z,11.70
2022-11-14T20:52:42.166Z,12.95
2022-11-14T20:55:27.552Z,12.57
2022-11-14T20:58:12.867Z,12.15
2022-11-14T21:00:58.723Z,10.13
2022-11-14T21:03:44.634Z,8.77
2022-11-14T21:06:29.673Z,8.93
2022-11-14T21:09:15.000Z,8.65
2022-11-14T21:12:00.262Z,9.18
2022-11-14T21:14:45.610Z,7.72
2022-11-14T21:17:33.917Z,9.40
2022-11-14T21:20:19.062Z,8.30
2022-11-14T21:23:04.704Z,7.93
2022-11-14T21:25:49.992Z,8.88
2022-11-14T21:28:38.316Z,9.10
2022-11-14T21:31:26.758Z,8.98
2022-11-14T21:34:14.898Z,8.45
2022-11-14T21:37:00.333Z,9.95
2022-11-14T21:39:48.321Z,9.80
2022-11-14T21:42:33.927Z,8.88
2022-11-14T21:45:19.187Z,9.75
2022-11-14T21:48:04.831Z,8.82
2022-11-14T21:50:50.178Z,8.32
2022-11-14T21:53:36.324Z,7.50
2022-11-14T21:56:27.609Z,7.88
2022-11-14T21:59:16.816Z,7.82
2022-11-14T22:02:20.753Z,7.85
2022-11-14T22:05:06.611Z,8.23
2022-11-14T22:07:51.975Z,8.98
2022-11-14T22:10:37.259Z,8.27
2022-11-14T22:13:22.639Z,8.23
2022-11-14T22:16:10.081Z,8.75
2022-11-14T22:19:00.489Z,9.10
2022-11-14T22:21:50.011Z,9.80
2022-11-14T22:24:35.184Z,10.40
2022-11-14T22:27:20.696Z,8.32
2022-11-14T22:30:06.435Z,8.15
2022-11-14T22:32:51.880Z,8.90
2022-11-14T22:35:37.262Z,9.13
2022-11-14T22:38:22.632Z,9.50
2022-11-14T22:41:14.557Z,10.10
2022-11-14T22:44:00.170Z,9.38
2022-11-14T22:46:45.347Z,9.15
2022-11-14T22:49:30.736Z,9.60
2022-11-14T22:52:16.000Z,8.60
2022-11-14T22:55:01.333Z,9.05
2022-11-14T22:57:46.770Z,9.10
2022-11-14T23:00:32.168Z,8.77
2022-11-14T23:03:21.352Z,10.13
2022-11-14T23:06:12.064Z,9.65
2022-11-14T23:08:57.686Z,9.95
2022-11-14T23:11:43.225Z,11.50
2022-11-14T23:14:28.707Z,12.07
2022-11-14T23:17:13.949Z,11.80
2022-11-14T23:19:59.582Z,9.85
2022-11-14T23:22:45.184Z,10.00
2022-11-14T23:25:30.276Z,9.75
2022-11-14T23:28:15.617Z,8.60
2022-11-14T23:31:01.878Z,9.68
2022-11-14T23:33:47.996Z,8.23
2022-11-14T23:36:33.255Z,9.05
2022-11-14T23:39:18.664Z,8.82
2022-11-14T23:42:04.125Z,8.48
2022-11-14T23:44:49.573Z,9.43
2022-11-14T23:47:35.157Z,7.63
2022-11-14T23:50:20.546Z,9.80
2022-11-14T23:53:05.997Z,10.25
2022-11-14T23:55:58.834Z,10.48
